createdAt,value
2022-11-13T00:01:20.556Z,100.00
2022-11-13T00:04:05.674Z,100.00
2022-11-13T00:06:54.794Z,100.00
2022-11-13T00:09:43.031Z,100.00
2022-11-13T00:12:29.162Z,100.00
2022-11-13T00:15:14.441Z,100.00
2022-11-13T00:18:03.386Z,100.00
2022-11-13T00:20:48.118Z,100.00
2022-11-13T00:23:34.819Z,100.00
2022-11-13T00:26:22.282Z,100.00
2022-11-13T00:29:07.157Z,100.00
2022-11-13T00:31:52.116Z,100.00
2022-11-13T00:34:52.289Z,100.00
2022-11-13T00:37:37.406Z,100.00
2022-11-13T00:40:22.209Z,100.00
2022-11-13T00:43:07.214Z,100.00
2022-11-13T00:45:52.483Z,100.00
2022-11-13T00:48:37.806Z,100.00
2022-11-13T00:51:23.033Z,100.00
2022-11-13T00:54:07.942Z,100.00
2022-11-13T00:56:52.815Z,100.00
2022-11-13T00:59:37.618Z,100.00
2022-11-13T01:02:22.542Z,100.00
2022-11-13T01:05:07.463Z,100.00
2022-11-13T01:07:52.840Z,100.00
2022-11-13T01:10:53.162Z,100.00
2022-11-13T01:13:40.257Z,100.00
2022-11-13T01:16:27.605Z,100.00
2022-11-13T01:19:12.568Z,100.00
2022-11-13T01:21:57.363Z,100.00
2022-11-13T01:24:42.466Z,100.00
2022-11-13T01:27:27.607Z,100.00
2022-11-13T01:30:12.677Z,100.00
2022-11-13T01:32:57.446Z,100.00
2022-11-13T01:35:42.442Z,100.00
2022-11-13T01:38:27.491Z,100.00
2022-11-13T01:41:28.007Z,100.00
2022-11-13T01:44:15.297Z,100.00
2022-11-13T01:47:00.446Z,100.00
2022-11-13T01:49:46.598Z,100.00
2022-11-13T01:52:38.788Z,100.00
2022-11-13T01:55:24.148Z,100.00
2022-11-13T01:58:11.536Z,100.00
2022-11-13T02:00:56.841Z,100.00
2022-11-13T02:03:41.856Z,100.00
2022-11-13T02:06:33.079Z,100.00
2022-11-13T02:09:20.599Z,100.00
2022-11-13T02:12:10.241Z,100.00
2022-11-13T02:14:58.113Z,100.00
2022-11-13T02:17:47.498Z,100.00
2022-11-13T02:20:45.092Z,100.00
2022-11-13T02:24:01.236Z,100.00
2022-11-13T02:26:45.980Z,100.00
2022-11-13T02:29:31.116Z,100.00
2022-11-13T02:32:16.291Z,100.00
2022-11-13T02:35:01.417Z,100.00
2022-11-13T02:37:46.504Z,100.00
2022-11-13T02:40:33.122Z,100.00
2022-11-13T02:43:18.168Z,100.00
2022-11-13T02:46:03.209Z,100.00
2022-11-13T02:48:48.458Z,100.00
2022-11-13T02:51:33.554Z,100.00
2022-11-13T02:54:18.706Z,100.00
2022-11-13T02:57:03.587Z,100.00
2022-11-13T02:59:48.855Z,100.00
2022-11-13T03:02:33.922Z,100.00
2022-11-13T03:05:19.063Z,100.00
2022-11-13T03:08:05.692Z,100.00
2022-11-13T03:10:50.485Z,100.00
2022-11-13T03:13:35.934Z,100.00
2022-11-13T03:16:20.828Z,100.00
2022-11-13T03:19:05.712Z,100.00
2022-11-13T03:21:50.960Z,100.00
2022-11-13T03:24:36.084Z,100.00
2022-11-13T03:27:21.434Z,100.00
2022-11-13T03:30:07.002Z,100.00
2022-11-13T03:32:55.929Z,100.00
2022-11-13T03:35:46.660Z,100.00
2022-11-13T03:38:32.383Z,100.00
2022-11-13T03:41:17.558Z,100.00
2022-11-13T03:44:02.747Z,100.00
2022-11-13T03:46:47.568Z,100.00
2022-11-13T03:49:32.544Z,100.00
2022-11-13T03:52:17.309Z,100.00
2022-11-13T03:55:02.199Z,100.00
2022-11-13T03:57:47.865Z,100.00
2022-11-13T04:00:33.133Z,100.00
2022-11-13T04:03:18.089Z,100.00
2022-11-13T04:06:02.898Z,100.00
2022-11-13T04:08:47.843Z,100.00
2022-11-13T04:11:33.168Z,100.00
2022-11-13T04:14:18.184Z,100.00
2022-11-13T04:17:02.976Z,100.00
2022-11-13T04:19:47.807Z,100.00
2022-11-13T04:22:33.402Z,100.00
2022-11-13T04:25:18.522Z,100.00
2022-11-13T04:28:03.559Z,100.00
2022-11-13T04:30:48.366Z,100.00
2022-11-13T04:33:33.277Z,100.00
2022-11-13T04:36:18.186Z,100.00
2022-11-13T04:39:03.404Z,100.00
2022-11-13T04:42:07.344Z,100.00
2022-11-13T04:44:52.425Z,100.00
2022-11-13T04:47:37.318Z,100.00
2022-11-13T04:50:23.496Z,100.00
2022-11-13T04:53:08.511Z,100.00
2022-11-13T04:55:53.594Z,100.00
2022-11-13T04:58:38.804Z,100.00
2022-11-13T05:01:23.642Z,100.00
2022-11-13T05:04:12.245Z,100.00
2022-11-13T05:06:57.295Z,100.00
2022-11-13T05:09:42.209Z,100.00
2022-11-13T05:12:27.169Z,100.00
2022-11-13T05:15:12.136Z,100.00
2022-11-13T05:17:56.925Z,100.00
2022-11-13T05:20:41.756Z,100.00
2022-11-13T05:23:26.845Z,100.00
2022-11-13T05:26:13.527Z,100.00
2022-11-13T05:28:59.642Z,100.00
2022-11-13T05:31:45.013Z,100.00
2022-11-13T05:34:30.056Z,100.00
2022-11-13T05:37:15.056Z,100.00
2022-11-13T05:40:00.216Z,100.00
2022-11-13T05:42:45.190Z,100.00
2022-11-13T05:45:30.352Z,100.00
2022-11-13T05:48:15.550Z,100.00
2022-11-13T05:51:24.984Z,100.00
2022-11-13T05:54:11.128Z,100.00
2022-11-13T05:56:55.978Z,100.00
2022-11-13T05:59:41.120Z,100.00
2022-11-13T06:02:26.072Z,100.00
2022-11-13T06:05:11.002Z,100.00
2022-11-13T06:07:55.882Z,100.00
2022-11-13T06:10:40.701Z,100.00
2022-11-13T06:13:25.826Z,100.00
2022-11-13T06:16:16.948Z,100.00
2022-11-13T06:19:05.435Z,100.00
2022-11-13T06:21:50.759Z,100.00
2022-11-13T06:24:35.840Z,100.00
2022-11-13T06:27:20.811Z,100.00
2022-11-13T06:30:06.181Z,100.00
2022-11-13T06:32:54.543Z,100.00
2022-11-13T06:35:39.453Z,100.00
2022-11-13T06:38:24.271Z,100.00
2022-11-13T06:41:12.054Z,100.00
2022-11-13T06:44:02.665Z,100.00
2022-11-13T06:46:48.506Z,100.00
2022-11-13T06:49:33.386Z,100.00
2022-11-13T06:52:18.302Z,100.00
2022-11-13T06:55:03.578Z,100.00
2022-11-13T06:57:48.541Z,100.00
2022-11-13T07:00:36.978Z,100.00
2022-11-13T07:03:26.023Z,100.00
2022-11-13T07:06:16.536Z,100.00
2022-11-13T07:09:01.577Z,100.00
2022-11-13T07:11:46.595Z,100.00
2022-11-13T07:14:31.502Z,100.00
2022-11-13T07:17:16.522Z,100.00
2022-11-13T07:20:01.426Z,100.00
2022-11-13T07:22:46.342Z,100.00
2022-11-13T07:25:32.066Z,100.00
2022-11-13T07:28:16.881Z,100.00
2022-11-13T07:31:01.723Z,100.00
2022-11-13T07:33:49.158Z,100.00
2022-11-13T07:36:34.297Z,100.00
2022-11-13T07:39:19.206Z,100.00
2022-11-13T07:42:04.183Z,100.00
2022-11-13T07:44:54.655Z,100.00
2022-11-13T07:47:40.796Z,100.00
2022-11-13T07:50:28.350Z,100.00
2022-11-13T07:53:13.418Z,100.00
2022-11-13T07:56:04.994Z,100.00
2022-11-13T07:58:49.878Z,100.00
2022-11-13T08:01:34.909Z,100.00
2022-11-13T08:04:19.740Z,100.00
2022-11-13T08:07:05.385Z,100.00
2022-11-13T08:09:50.464Z,100.00
2022-11-13T08:12:35.818Z,100.00
2022-11-13T08:15:20.668Z,100.00
2022-11-13T08:18:05.928Z,100.00
2022-11-13T08:20:50.838Z,100.00
2022-11-13T08:23:35.593Z,100.00
2022-11-13T08:26:20.646Z,100.00
2022-11-13T08:29:05.292Z,100.00
2022-11-13T08:31:50.278Z,100.00
2022-11-13T08:34:36.935Z,100.00
2022-11-13T08:37:22.058Z,100.00
2022-11-13T08:40:07.349Z,100.00
2022-11-13T08:43:39.807Z,100.00
2022-11-13T08:46:24.874Z,100.00
2022-11-13T08:49:09.705Z,100.00
2022-11-13T08:51:54.707Z,100.00
2022-11-13T08:54:39.585Z,100.00
2022-11-13T08:57:24.498Z,100.00
2022-11-13T09:00:10.274Z,100.00
2022-11-13T09:02:57.198Z,100.00
2022-11-13T09:05:42.362Z,100.00
2022-11-13T09:08:29.840Z,100.00
2022-11-13T09:11:15.018Z,100.00
2022-11-13T09:14:00.190Z,100.00
2022-11-13T09:16:45.307Z,100.00
2022-11-13T09:19:30.174Z,100.00
2022-11-13T09:22:15.109Z,100.00
2022-11-13T09:25:00.096Z,100.00
2022-11-13T09:27:52.486Z,100.00
2022-11-13T09:30:39.804Z,100.00
2022-11-13T09:33:24.896Z,100.00
2022-11-13T09:36:14.455Z,100.00
2022-11-13T09:39:00.821Z,100.00
2022-11-13T09:41:54.394Z,100.00
2022-11-13T09:44:47.682Z,100.00
2022-11-13T09:47:41.290Z,100.00
2022-11-13T09:50:29.660Z,100.00
2022-11-13T09:53:15.742Z,100.00
2022-11-13T09:56:14.911Z,100.00
2022-11-13T09:59:22.487Z,100.00
2022-11-13T10:02:23.063Z,100.00
2022-11-13T10:05:22.929Z,100.00
2022-11-13T10:08:19.052Z,100.00
2022-11-13T10:11:37.409Z,100.00
2022-11-13T10:14:32.932Z,100.00
2022-11-13T10:17:30.774Z,100.00
2022-11-13T10:20:22.455Z,100.00
2022-11-13T10:23:30.060Z,100.00
2022-11-13T10:26:18.442Z,100.00
2022-11-13T10:29:12.558Z,100.00
2022-11-13T10:31:59.363Z,100.00
2022-11-13T10:34:48.846Z,100.00
2022-11-13T10:37:55.242Z,100.00
2022-11-13T10:40:40.796Z,100.00
2022-11-13T10:43:26.756Z,100.00
2022-11-13T10:46:24.573Z,100.00
2022-11-13T10:49:29.006Z,100.00
2022-11-13T10:52:27.760Z,100.00
2022-11-13T10:55:37.568Z,100.00
2022-11-13T10:58:22.855Z,100.00
2022-11-13T11:01:23.772Z,100.00
2022-11-13T11:04:21.425Z,99.97
2022-11-13T11:07:21.804Z,100.00
2022-11-13T11:10:33.395Z,98.55
2022-11-13T11:13:23.482Z,98.65
2022-11-13T11:16:12.557Z,97.67
2022-11-13T11:19:02.537Z,97.91
2022-11-13T11:21:51.323Z,97.74
2022-11-13T11:24:42.166Z,97.44
2022-11-13T11:27:35.050Z,96.57
2022-11-13T11:30:22.971Z,95.87
2022-11-13T11:33:19.626Z,95.77
2022-11-13T11:36:08.932Z,95.39
2022-11-13T11:39:25.509Z,94.65
2022-11-13T11:42:34.495Z,94.89
2022-11-13T11:45:34.051Z,95.06
2022-11-13T11:48:21.899Z,94.71
2022-11-13T11:51:35.627Z,94.96
2022-11-13T11:54:40.118Z,94.27
2022-11-13T11:57:41.578Z,93.80
2022-11-13T12:00:31.058Z,93.59
2022-11-13T12:03:44.043Z,93.24
2022-11-13T12:07:00.876Z,92.95
2022-11-13T12:10:13.979Z,91.54
2022-11-13T12:13:13.746Z,91.87
2022-11-13T12:16:10.902Z,92.13
2022-11-13T12:19:04.403Z,91.69
2022-11-13T12:22:06.737Z,91.61
2022-11-13T12:25:27.764Z,90.71
2022-11-13T12:28:20.441Z,90.05
2022-11-13T12:31:41.469Z,90.05
2022-11-13T12:34:34.641Z,89.60
2022-11-13T12:37:35.415Z,89.93
2022-11-13T12:40:28.896Z,89.77
2022-11-13T12:43:51.176Z,88.81
2022-11-13T12:46:38.792Z,88.16
2022-11-13T12:49:23.824Z,87.41
2022-11-13T12:52:22.711Z,86.64
2022-11-13T12:55:25.780Z,86.84
2022-11-13T12:58:20.890Z,86.74
2022-11-13T13:01:17.398Z,86.34
2022-11-13T13:04:30.488Z,85.59
2022-11-13T13:07:48.518Z,85.80
2022-11-13T13:11:00.640Z,85.55
2022-11-13T13:14:05.972Z,84.71
2022-11-13T13:16:51.148Z,85.18
2022-11-13T13:19:35.966Z,84.89
2022-11-13T13:22:30.287Z,84.29
2022-11-13T13:25:31.611Z,84.32
2022-11-13T13:28:24.255Z,85.11
2022-11-13T13:31:12.053Z,84.69
2022-11-13T13:34:19.315Z,84.08
2022-11-13T13:37:21.433Z,84.46
2022-11-13T13:40:29.763Z,84.56
2022-11-13T13:43:29.956Z,85.23
2022-11-13T13:46:21.813Z,85.19
2022-11-13T13:49:13.638Z,85.14
2022-11-13T13:51:58.603Z,84.60
2022-11-13T13:54:45.362Z,84.87
2022-11-13T13:57:30.449Z,84.92
2022-11-13T14:00:17.948Z,84.73
2022-11-13T14:03:03.949Z,84.80
2022-11-13T14:05:48.902Z,84.32
2022-11-13T14:08:34.270Z,83.54
2022-11-13T14:11:22.697Z,82.12
2022-11-13T14:14:22.120Z,81.54
2022-11-13T14:17:09.993Z,82.07
2022-11-13T14:20:00.561Z,82.22
2022-11-13T14:22:56.516Z,82.36
2022-11-13T14:25:43.311Z,82.82
2022-11-13T14:28:31.184Z,82.79
2022-11-13T14:31:16.674Z,83.11
2022-11-13T14:34:08.141Z,83.05
2022-11-13T14:36:53.160Z,83.20
2022-11-13T14:39:37.966Z,83.60
2022-11-13T14:42:28.368Z,83.54
2022-11-13T14:45:16.580Z,84.10
2022-11-13T14:48:04.855Z,84.18
2022-11-13T14:50:56.457Z,85.74
2022-11-13T14:53:42.366Z,86.28
2022-11-13T14:56:33.348Z,86.62
2022-11-13T14:59:26.998Z,86.84
2022-11-13T15:02:12.704Z,86.56
2022-11-13T15:04:57.923Z,87.42
2022-11-13T15:07:45.660Z,86.82
2022-11-13T15:10:31.301Z,87.07
2022-11-13T15:13:17.889Z,87.89
2022-11-13T15:16:03.249Z,87.61
2022-11-13T15:19:04.463Z,88.50
2022-11-13T15:22:20.406Z,88.58
2022-11-13T15:24:54.509Z,88.42
2022-11-13T15:27:43.096Z,88.92
2022-11-13T15:30:28.161Z,89.10
2022-11-13T15:33:15.018Z,90.27
2022-11-13T15:36:00.157Z,90.19
2022-11-13T15:38:45.648Z,89.96
2022-11-13T15:41:32.953Z,90.09
2022-11-13T15:44:17.941Z,89.77
2022-11-13T15:47:02.787Z,89.78
2022-11-13T15:50:09.847Z,90.66
2022-11-13T15:52:54.663Z,90.48
2022-11-13T15:55:41.238Z,90.46
2022-11-13T15:58:29.309Z,90.26
2022-11-13T16:01:19.481Z,91.66
2022-11-13T16:04:06.026Z,91.61
2022-11-13T16:06:51.183Z,92.24
2022-11-13T16:09:36.060Z,91.94
2022-11-13T16:12:21.111Z,92.25
2022-11-13T16:15:06.914Z,92.19
2022-11-13T16:17:54.303Z,92.00
2022-11-13T16:20:39.169Z,93.37
2022-11-13T16:23:24.626Z,96.11
2022-11-13T16:26:14.890Z,97.94
2022-11-13T16:29:13.109Z,96.69
2022-11-13T16:31:59.030Z,96.84
2022-11-13T16:34:46.080Z,96.67
2022-11-13T16:37:31.321Z,99.86
2022-11-13T16:40:22.564Z,100.00
2022-11-13T16:43:07.882Z,100.00
2022-11-13T16:45:53.280Z,100.00
2022-11-13T16:48:38.549Z,100.00
2022-11-13T16:51:23.642Z,100.00
2022-11-13T16:54:08.838Z,100.00
2022-11-13T16:56:53.857Z,100.00
2022-11-13T16:59:39.321Z,100.00
2022-11-13T17:02:24.497Z,100.00
2022-11-13T17:05:14.393Z,100.00
2022-11-13T17:08:00.131Z,100.00
2022-11-13T17:10:45.392Z,100.00
2022-11-13T17:13:30.836Z,100.00
2022-11-13T17:16:17.101Z,100.00
2022-11-13T17:19:02.209Z,100.00
2022-11-13T17:21:47.128Z,100.00
2022-11-13T17:24:32.145Z,100.00
2022-11-13T17:27:17.919Z,100.00
2022-11-13T17:30:03.281Z,100.00
2022-11-13T17:32:50.559Z,100.00
2022-11-13T17:35:35.718Z,100.00
2022-11-13T17:38:20.774Z,100.00
2022-11-13T17:41:10.965Z,100.00
2022-11-13T17:44:00.903Z,100.00
2022-11-13T17:46:47.199Z,100.00
2022-11-13T17:49:32.601Z,100.00
2022-11-13T17:52:17.467Z,100.00
2022-11-13T17:55:05.994Z,100.00
2022-11-13T17:57:51.228Z,100.00
2022-11-13T18:00:36.155Z,100.00
2022-11-13T18:03:21.229Z,100.00
2022-11-13T18:06:08.787Z,100.00
2022-11-13T18:08:53.874Z,100.00
2022-11-13T18:11:38.772Z,100.00
2022-11-13T18:14:23.804Z,100.00
2022-11-13T18:17:08.770Z,100.00
2022-11-13T18:20:01.353Z,100.00
2022-11-13T18:22:46.776Z,100.00
2022-11-13T18:25:38.508Z,100.00
2022-11-13T18:28:24.895Z,100.00
2022-11-13T18:31:12.934Z,100.00
2022-11-13T18:33:59.521Z,100.00
2022-11-13T18:36:50.863Z,100.00
2022-11-13T18:39:35.938Z,100.00
2022-11-13T18:42:20.754Z,100.00
2022-11-13T18:45:06.548Z,100.00
2022-11-13T18:47:51.648Z,100.00
2022-11-13T18:50:36.762Z,100.00
2022-11-13T18:53:21.906Z,100.00
2022-11-13T18:56:10.246Z,100.00
2022-11-13T18:58:56.417Z,100.00
2022-11-13T19:01:45.155Z,100.00
2022-11-13T19:04:32.005Z,100.00
2022-11-13T19:07:17.368Z,100.00
2022-11-13T19:10:03.101Z,100.00
2022-11-13T19:12:48.562Z,100.00
2022-11-13T19:15:38.196Z,100.00
2022-11-13T19:18:23.543Z,100.00
2022-11-13T19:21:11.991Z,100.00
2022-11-13T19:23:58.630Z,100.00
2022-11-13T19:26:44.429Z,100.00
2022-11-13T19:29:29.367Z,100.00
2022-11-13T19:32:14.470Z,100.00
2022-11-13T19:34:59.751Z,100.00
2022-11-13T19:37:44.930Z,100.00
2022-11-13T19:40:30.030Z,100.00
2022-11-13T19:43:14.949Z,100.00
2022-11-13T19:46:08.285Z,100.00
2022-11-13T19:48:53.690Z,100.00
2022-11-13T19:51:38.566Z,100.00
2022-11-13T19:54:23.596Z,100.00
2022-11-13T19:57:11.325Z,100.00
2022-11-13T19:59:56.566Z,100.00
2022-11-13T20:02:41.415Z,100.00
2022-11-13T20:05:26.285Z,100.00
2022-11-13T20:08:12.747Z,100.00
2022-11-13T20:11:03.071Z,100.00
2022-11-13T20:13:48.081Z,100.00
2022-11-13T20:16:33.221Z,100.00
2022-11-13T20:19:18.409Z,100.00
2022-11-13T20:22:03.272Z,100.00
2022-11-13T20:24:48.536Z,100.00
2022-11-13T20:27:36.951Z,100.00
2022-11-13T20:30:22.170Z,100.00
2022-11-13T20:33:07.138Z,100.00
2022-11-13T20:35:55.188Z,100.00
2022-11-13T20:38:41.111Z,100.00
2022-11-13T20:41:26.227Z,100.00
2022-11-13T20:44:12.303Z,100.00
2022-11-13T20:46:57.398Z,100.00
2022-11-13T20:49:42.253Z,100.00
2022-11-13T20:52:27.167Z,100.00
2022-11-13T20:55:12.042Z,100.00
2022-11-13T20:57:57.173Z,100.00
2022-11-13T21:00:42.295Z,100.00
2022-11-13T21:03:27.442Z,100.00
2022-11-13T21:06:15.913Z,100.00
2022-11-13T21:09:01.728Z,100.00
2022-11-13T21:11:46.907Z,100.00
2022-11-13T21:14:31.985Z,100.00
2022-11-13T21:17:16.867Z,100.00
2022-11-13T21:20:02.485Z,100.00
2022-11-13T21:22:47.661Z,100.00
2022-11-13T21:25:32.518Z,100.00
2022-11-13T21:28:22.440Z,100.00
2022-11-13T21:31:17.798Z,100.00
2022-11-13T21:34:03.922Z,100.00
2022-11-13T21:36:49.248Z,100.00
2022-11-13T21:39:34.612Z,100.00
2022-11-13T21:43:26.285Z,100.00
2022-11-13T21:46:12.442Z,100.00
2022-11-13T21:48:59.851Z,100.00
2022-11-13T21:51:44.764Z,100.00
2022-11-13T21:54:29.595Z,100.00
2022-11-13T21:57:14.521Z,100.00
2022-11-13T21:59:59.463Z,100.00
2022-11-13T22:02:44.340Z,100.00
2022-11-13T22:05:29.354Z,100.00
2022-11-13T22:08:14.532Z,100.00
2022-11-13T22:10:59.824Z,100.00
2022-11-13T22:13:44.658Z,100.00
2022-11-13T22:16:32.310Z,100.00
2022-11-13T22:19:25.266Z,100.00
2022-11-13T22:22:12.371Z,100.00
2022-11-13T22:24:57.186Z,100.00
2022-11-13T22:27:42.106Z,100.00
2022-11-13T22:30:27.237Z,100.00
2022-11-13T22:33:12.254Z,100.00
2022-11-13T22:36:05.635Z,100.00
2022-11-13T22:38:51.286Z,100.00
2022-11-13T22:41:36.797Z,100.00
2022-11-13T22:44:22.100Z,100.00
2022-11-13T22:47:07.218Z,100.00
2022-11-13T22:49:52.172Z,100.00
2022-11-13T22:52:37.066Z,100.00
2022-11-13T22:55:22.123Z,100.00
2022-11-13T22:58:07.134Z,100.00
2022-11-13T23:00:51.945Z,100.00
2022-11-13T23:03:38.534Z,100.00
2022-11-13T23:06:26.763Z,100.00
2022-11-13T23:09:11.905Z,100.00
2022-11-13T23:11:56.783Z,100.00
2022-11-13T23:14:41.616Z,100.00
2022-11-13T23:17:26.634Z,100.00
2022-11-13T23:20:12.208Z,100.00
2022-11-13T23:22:57.278Z,100.00
2022-11-13T23:25:42.170Z,100.00
2022-11-13T23:28:28.461Z,100.00
2022-11-13T23:31:14.230Z,100.00
2022-11-13T23:33:59.241Z,100.00
2022-11-13T23:36:44.226Z,100.00
2022-11-13T23:39:29.150Z,100.00
2022-11-13T23:42:14.002Z,100.00
2022-11-13T23:44:58.907Z,100.00
2022-11-13T23:47:43.922Z,100.00
2022-11-13T23:50:29.200Z,100.00
2022-11-13T23:53:14.114Z,100.00
2022-11-13T23:55:59.178Z,100.00
2022-11-13T23:58:44.196Z,100.00
